createdAt,value
2022-09-30T00:01:01.414Z,100084.75
2022-09-30T00:03:30.857Z,100083.75
2022-09-30T00:06:04.336Z,100086.16
2022-09-30T00:08:40.682Z,100087.94
2022-09-30T00:11:13.526Z,100096.97
2022-09-30T00:13:43.169Z,100098.69
2022-09-30T00:16:14.129Z,100101.09
2022-09-30T00:18:44.457Z,100100.16
2022-09-30T00:21:15.771Z,100098.28
2022-09-30T00:23:48.026Z,100104.28
2022-09-30T00:26:20.263Z,100111.09
2022-09-30T00:28:52.728Z,100120.56
2022-09-30T00:31:23.259Z,100116.31
2022-09-30T00:34:07.004Z,100117.13
2022-09-30T00:36:38.202Z,100121.38
2022-09-30T00:39:12.160Z,100129.16
2022-09-30T00:41:42.562Z,100124.00
2022-09-30T00:44:42.726Z,100124.09
2022-09-30T00:47:39.013Z,100130.97
2022-09-30T00:50:18.574Z,100127.59
2022-09-30T00:52:50.993Z,100130.91
2022-09-30T00:55:29.557Z,100130.81
2022-09-30T00:57:59.465Z,100134.34
2022-09-30T01:00:28.923Z,100135.13
2022-09-30T01:02:58.650Z,100132.56
2022-09-30T01:05:29.218Z,100128.41
2022-09-30T01:08:00.807Z,100122.19
2022-09-30T01:10:32.791Z,100123.94
2022-09-30T01:13:02.493Z,100127.31
2022-09-30T01:15:45.035Z,100130.44
2022-09-30T01:18:20.115Z,100138.13
2022-09-30T01:21:18.391Z,100136.28
2022-09-30T01:24:03.111Z,100138.78
2022-09-30T01:26:48.245Z,100142.09
2022-09-30T01:29:33.799Z,100140.41
2022-09-30T01:32:11.672Z,100144.44
2022-09-30T01:34:49.160Z,100137.41
2022-09-30T01:37:26.309Z,100138.09
2022-09-30T01:40:07.009Z,100142.34
2022-09-30T01:42:42.523Z,100141.63
2022-09-30T01:45:15.498Z,100146.63
2022-09-30T01:47:51.433Z,100152.47
2022-09-30T01:50:23.708Z,100142.97
2022-09-30T01:52:59.269Z,100147.06
2022-09-30T01:55:32.367Z,100146.25
2022-09-30T01:58:04.345Z,100152.19
2022-09-30T02:00:35.081Z,100156.44
2022-09-30T02:03:10.973Z,100155.63
2022-09-30T02:05:43.918Z,100149.56
2022-09-30T02:08:17.239Z,100159.81
2022-09-30T02:10:49.904Z,100162.38
2022-09-30T02:13:22.677Z,100154.53
2022-09-30T02:15:55.797Z,100163.13
2022-09-30T02:18:31.854Z,100167.34
2022-09-30T02:21:04.414Z,100169.06
2022-09-30T02:23:36.672Z,100171.53
2022-09-30T02:26:08.633Z,100177.41
2022-09-30T02:28:40.951Z,100178.28
2022-09-30T02:31:11.452Z,100188.69
2022-09-30T02:33:46.230Z,100176.75
2022-09-30T02:36:22.090Z,100182.91
2022-09-30T02:38:58.178Z,100187.22
2022-09-30T02:41:29.146Z,100187.44
2022-09-30T02:43:58.672Z,100183.28
2022-09-30T02:46:30.513Z,100183.03
2022-09-30T02:49:06.346Z,100182.66
2022-09-30T02:51:43.831Z,100178.22
2022-09-30T02:54:20.711Z,100182.13
2022-09-30T02:56:54.870Z,100174.06
2022-09-30T02:59:24.524Z,100178.19
2022-09-30T03:01:54.357Z,100178.25
2022-09-30T03:04:31.435Z,100186.03
2022-09-30T03:07:00.841Z,100190.22
2022-09-30T03:09:30.552Z,100198.06
2022-09-30T03:12:08.201Z,100198.94
2022-09-30T03:14:50.042Z,100201.56
2022-09-30T03:17:33.365Z,100199.97
2022-09-30T03:20:17.238Z,100202.59
2022-09-30T03:23:22.483Z,100208.59
2022-09-30T03:25:59.505Z,100207.88
2022-09-30T03:28:31.865Z,100211.34
2022-09-30T03:31:07.895Z,100204.56
2022-09-30T03:33:44.490Z,100200.25
2022-09-30T03:36:18.803Z,100198.63
2022-09-30T03:38:52.760Z,100191.81
2022-09-30T03:41:27.414Z,100197.00
2022-09-30T03:44:01.294Z,100195.31
2022-09-30T03:46:35.405Z,100197.81
2022-09-30T03:49:07.419Z,100195.13
2022-09-30T03:51:41.272Z,100196.13
2022-09-30T03:54:12.327Z,100197.81
2022-09-30T03:56:43.873Z,100199.53
2022-09-30T03:59:15.181Z,100210.66
2022-09-30T04:01:44.584Z,100207.94
2022-09-30T04:04:14.017Z,100214.03
2022-09-30T04:06:46.538Z,100214.16
2022-09-30T04:09:16.060Z,100217.53
2022-09-30T04:11:45.519Z,100214.09
2022-09-30T04:14:14.961Z,100216.72
2022-09-30T04:16:44.427Z,100224.41
2022-09-30T04:19:13.875Z,100226.97
2022-09-30T04:21:45.886Z,100231.34
2022-09-30T04:24:15.257Z,100233.22
2022-09-30T04:26:44.645Z,100239.97
2022-09-30T04:29:14.165Z,100239.81
2022-09-30T04:31:43.662Z,100240.88
2022-09-30T04:34:13.145Z,100252.72
2022-09-30T04:36:43.306Z,100257.13
2022-09-30T04:39:15.327Z,100258.06
2022-09-30T04:41:44.784Z,100256.47
2022-09-30T04:44:14.148Z,100249.63
2022-09-30T04:46:43.961Z,100249.78
2022-09-30T04:49:13.342Z,100250.66
2022-09-30T04:51:46.053Z,100257.50
2022-09-30T04:54:18.745Z,100260.91
2022-09-30T04:56:48.140Z,100260.91
2022-09-30T04:59:17.548Z,100265.31
2022-09-30T05:01:47.181Z,100273.03
2022-09-30T05:04:16.680Z,100272.09
2022-09-30T05:06:46.105Z,100268.63
2022-09-30T05:09:18.124Z,100276.31
2022-09-30T05:11:47.571Z,100276.31
2022-09-30T05:14:16.956Z,100276.19
2022-09-30T05:16:46.327Z,100284.84
2022-09-30T05:19:15.701Z,100277.94
2022-09-30T05:21:45.089Z,100281.31
2022-09-30T05:24:14.518Z,100281.41
2022-09-30T05:26:46.518Z,100280.38
2022-09-30T05:29:16.209Z,100287.06
2022-09-30T05:31:45.692Z,100295.50
2022-09-30T05:34:16.768Z,100293.66
2022-09-30T05:36:46.480Z,100302.09
2022-09-30T05:39:15.918Z,100307.06
2022-09-30T05:41:47.891Z,100301.88
2022-09-30T05:44:17.310Z,100305.19
2022-09-30T05:46:47.340Z,100304.19
2022-09-30T05:49:16.958Z,100306.72
2022-09-30T05:51:46.776Z,100304.94
2022-09-30T05:54:16.382Z,100307.50
2022-09-30T05:56:48.342Z,100302.38
2022-09-30T05:59:17.726Z,100306.41
2022-09-30T06:01:47.192Z,100302.03
2022-09-30T06:04:16.662Z,100310.00
2022-09-30T06:06:49.822Z,100314.91
2022-09-30T06:09:19.464Z,100314.03
2022-09-30T06:11:51.798Z,100315.78
2022-09-30T06:14:22.913Z,100318.44
2022-09-30T06:16:52.553Z,100318.44
2022-09-30T06:19:22.111Z,100323.69
2022-09-30T06:21:51.927Z,100326.34
2022-09-30T06:24:21.307Z,100329.84
2022-09-30T06:26:53.326Z,100330.88
2022-09-30T06:29:22.870Z,100326.81
2022-09-30T06:31:52.410Z,100332.16
2022-09-30T06:34:22.120Z,100320.44
2022-09-30T06:36:51.495Z,100313.88
2022-09-30T06:39:20.899Z,100307.28
2022-09-30T06:41:52.890Z,100316.16
2022-09-30T06:44:22.281Z,100317.25
2022-09-30T06:46:54.074Z,100320.91
2022-09-30T06:49:24.085Z,100323.69
2022-09-30T06:51:53.814Z,100325.75
2022-09-30T06:54:23.233Z,100327.50
2022-09-30T06:56:57.430Z,100331.28
2022-09-30T06:59:27.205Z,100333.22
2022-09-30T07:01:56.585Z,100326.53
2022-09-30T07:04:25.964Z,100332.69
2022-09-30T07:06:55.343Z,100335.38
2022-09-30T07:09:25.765Z,100341.78
2022-09-30T07:11:57.850Z,100339.31
2022-09-30T07:14:27.355Z,100349.84
2022-09-30T07:16:57.287Z,100353.53
2022-09-30T07:19:26.710Z,100357.19
2022-09-30T07:21:56.069Z,100356.72
2022-09-30T07:24:25.842Z,100349.13
2022-09-30T07:26:57.812Z,100356.09
2022-09-30T07:29:27.598Z,100357.34
2022-09-30T07:31:57.208Z,100360.78
2022-09-30T07:34:26.697Z,100354.03
2022-09-30T07:36:56.082Z,100356.25
2022-09-30T07:39:25.452Z,100368.31
2022-09-30T07:41:57.476Z,100371.22
2022-09-30T07:44:26.919Z,100378.16
2022-09-30T07:46:56.366Z,100383.72
2022-09-30T07:49:26.908Z,100387.53
2022-09-30T07:51:58.424Z,100392.88
2022-09-30T07:54:29.733Z,100388.13
2022-09-30T07:57:10.085Z,100395.03
2022-09-30T07:59:41.333Z,100399.69
2022-09-30T08:02:15.859Z,100406.91
2022-09-30T08:04:45.493Z,100405.59
2022-09-30T08:07:16.122Z,100419.41
2022-09-30T08:09:45.643Z,100421.59
2022-09-30T08:12:17.636Z,100435.53
2022-09-30T08:14:47.301Z,100426.56
2022-09-30T08:17:16.709Z,100432.28
2022-09-30T08:19:46.285Z,100430.31
2022-09-30T08:22:16.619Z,100433.63
2022-09-30T08:24:45.974Z,100435.84
2022-09-30T08:27:17.999Z,100438.06
2022-09-30T08:29:55.258Z,100443.31
2022-09-30T08:32:25.524Z,100448.63
2022-09-30T08:34:54.890Z,100447.34
2022-09-30T08:37:24.356Z,100458.13
2022-09-30T08:39:53.743Z,100469.53
2022-09-30T08:42:38.788Z,100472.94
2022-09-30T08:45:17.542Z,100476.19
2022-09-30T08:47:50.623Z,100484.44
2022-09-30T08:50:26.147Z,100475.94
2022-09-30T08:52:58.066Z,100485.44
2022-09-30T08:55:29.278Z,100486.84
2022-09-30T08:58:01.359Z,100491.94
2022-09-30T09:00:31.349Z,100489.59
2022-09-30T09:03:03.149Z,100490.81
2022-09-30T09:05:40.350Z,100487.75
2022-09-30T09:08:15.027Z,100491.59
2022-09-30T09:10:48.458Z,100496.03
2022-09-30T09:13:36.798Z,100497.16
2022-09-30T09:16:11.626Z,100497.97
2022-09-30T09:18:45.407Z,100502.59
2022-09-30T09:21:24.071Z,100511.56
2022-09-30T09:23:56.133Z,100502.28
2022-09-30T09:26:26.522Z,100498.34
2022-09-30T09:29:09.158Z,100501.41
2022-09-30T09:31:38.679Z,100496.44
2022-09-30T09:34:13.574Z,100502.41
2022-09-30T09:36:51.593Z,100503.69
2022-09-30T09:39:37.871Z,100505.06
2022-09-30T09:42:13.200Z,100505.19
2022-09-30T09:44:52.075Z,100500.72
2022-09-30T09:47:21.504Z,100497.47
2022-09-30T09:49:57.511Z,100494.50
2022-09-30T09:52:47.338Z,100492.88
2022-09-30T09:55:17.604Z,100488.72
2022-09-30T09:57:47.693Z,100487.28
2022-09-30T10:00:41.246Z,100490.06
2022-09-30T10:03:19.151Z,100499.25
2022-09-30T10:05:49.562Z,100503.63
2022-09-30T10:08:20.771Z,100508.16
2022-09-30T10:10:52.848Z,100515.19
2022-09-30T10:13:24.303Z,100519.81
2022-09-30T10:15:58.099Z,100527.50
2022-09-30T10:18:30.061Z,100529.06
2022-09-30T10:21:01.992Z,100533.53
2022-09-30T10:23:33.710Z,100533.66
2022-09-30T10:26:06.865Z,100533.19
2022-09-30T10:28:38.114Z,100538.69
2022-09-30T10:31:15.119Z,100539.00
2022-09-30T10:33:46.633Z,100531.22
2022-09-30T10:36:19.534Z,100528.56
2022-09-30T10:38:55.515Z,100529.69
2022-09-30T10:41:27.483Z,100522.91
2022-09-30T10:43:58.852Z,100528.09
2022-09-30T10:46:32.817Z,100520.72
2022-09-30T10:49:03.039Z,100516.56
2022-09-30T10:51:36.388Z,100515.31
2022-09-30T10:54:06.864Z,100518.06
2022-09-30T10:56:45.963Z,100512.38
2022-09-30T10:59:34.032Z,100517.31
2022-09-30T11:02:16.505Z,100516.72
2022-09-30T11:04:49.001Z,100537.00
2022-09-30T11:07:26.710Z,100539.75
2022-09-30T11:10:01.119Z,100539.75
2022-09-30T11:12:35.466Z,100545.84
2022-09-30T11:15:11.138Z,100550.81
2022-09-30T11:17:49.900Z,100558.00
2022-09-30T11:20:23.833Z,100552.81
2022-09-30T11:22:58.089Z,100547.69
2022-09-30T11:25:31.685Z,100538.88
2022-09-30T11:28:15.709Z,100547.16
2022-09-30T11:30:50.024Z,100561.28
2022-09-30T11:33:32.498Z,100579.47
2022-09-30T11:36:08.381Z,100600.31
2022-09-30T11:39:01.378Z,100620.66
2022-09-30T11:41:33.979Z,100620.56
2022-09-30T11:44:10.926Z,100636.75
2022-09-30T11:47:01.127Z,100635.97
2022-09-30T11:49:48.652Z,100630.94
2022-09-30T11:52:22.261Z,100622.78
2022-09-30T11:55:15.479Z,100638.75
2022-09-30T11:57:50.132Z,100644.09
2022-09-30T12:00:21.151Z,100635.25
2022-09-30T12:02:53.237Z,100643.22
2022-09-30T12:05:27.842Z,100628.22
2022-09-30T12:08:01.579Z,100641.13
2022-09-30T12:10:33.878Z,100642.41
2022-09-30T12:13:06.697Z,100648.16
2022-09-30T12:15:36.845Z,100657.94
2022-09-30T12:18:08.817Z,100671.25
2022-09-30T12:20:45.137Z,100671.06
2022-09-30T12:23:20.261Z,100671.97
2022-09-30T12:25:53.274Z,100674.59
2022-09-30T12:28:42.353Z,100678.50
2022-09-30T12:31:23.987Z,100655.94
2022-09-30T12:34:03.948Z,100673.31
2022-09-30T12:36:47.772Z,100670.59
2022-09-30T12:39:40.674Z,100691.91
2022-09-30T12:42:29.475Z,100700.59
2022-09-30T12:45:24.097Z,100699.16
2022-09-30T12:47:55.049Z,100699.41
2022-09-30T12:50:26.874Z,100716.13
2022-09-30T12:53:01.273Z,100719.44
2022-09-30T12:55:32.778Z,100721.78
2022-09-30T12:58:03.239Z,100757.66
2022-09-30T13:00:34.733Z,100768.19
2022-09-30T13:03:07.828Z,100768.69
2022-09-30T13:05:56.358Z,100770.78
2022-09-30T13:08:44.693Z,100779.88
2022-09-30T13:11:46.879Z,100780.13
2022-09-30T13:14:27.344Z,100797.25
2022-09-30T13:17:28.090Z,100803.19
2022-09-30T13:19:58.122Z,100813.50
2022-09-30T13:23:00.518Z,100793.31
2022-09-30T13:25:56.169Z,100775.66
2022-09-30T13:28:35.193Z,100787.50
2022-09-30T13:31:25.565Z,100789.13
2022-09-30T13:34:12.041Z,100786.16
2022-09-30T13:36:43.297Z,100787.63
2022-09-30T13:39:24.135Z,100790.38
2022-09-30T13:42:15.221Z,100785.19
2022-09-30T13:44:57.650Z,100766.13
2022-09-30T13:47:31.103Z,100762.50
2022-09-30T13:50:04.874Z,100769.00
2022-09-30T13:52:38.198Z,100761.41
2022-09-30T13:55:11.146Z,100761.13
2022-09-30T13:57:50.518Z,100758.56
2022-09-30T14:00:21.452Z,100753.78
2022-09-30T14:03:08.981Z,100762.84
2022-09-30T14:05:46.211Z,100763.78
2022-09-30T14:08:51.402Z,100761.59
2022-09-30T14:11:42.183Z,100771.53
2022-09-30T14:14:28.639Z,100761.56
2022-09-30T14:17:15.299Z,100757.94
2022-09-30T14:20:00.209Z,100742.00
2022-09-30T14:22:30.185Z,100747.38
2022-09-30T14:24:59.706Z,100741.25
2022-09-30T14:27:45.416Z,100742.09
2022-09-30T14:30:19.802Z,100739.84
2022-09-30T14:32:51.054Z,100740.78
2022-09-30T14:35:27.998Z,100742.50
2022-09-30T14:37:59.853Z,100750.84
2022-09-30T14:40:30.399Z,100741.72
2022-09-30T14:43:02.815Z,100742.31
2022-09-30T14:45:37.078Z,100733.78
2022-09-30T14:48:11.741Z,100737.72
2022-09-30T14:50:46.599Z,100731.88
2022-09-30T14:53:30.142Z,100739.16
2022-09-30T14:55:59.939Z,100730.84
2022-09-30T14:58:31.269Z,100724.69
2022-09-30T15:01:06.329Z,100717.41
2022-09-30T15:03:38.212Z,100717.41
2022-09-30T15:06:08.788Z,100727.63
2022-09-30T15:08:38.319Z,100724.69
2022-09-30T15:11:08.145Z,100730.72
2022-09-30T15:13:37.550Z,100720.41
2022-09-30T15:16:25.199Z,100722.94
2022-09-30T15:18:55.161Z,100715.16
2022-09-30T15:21:25.668Z,100718.78
2022-09-30T15:23:57.303Z,100715.34
2022-09-30T15:26:28.726Z,100712.75
2022-09-30T15:28:58.131Z,100716.34
2022-09-30T15:31:31.248Z,100713.75
2022-09-30T15:34:08.688Z,100709.25
2022-09-30T15:36:38.933Z,100706.66
2022-09-30T15:39:08.890Z,100704.06
2022-09-30T15:41:42.260Z,100706.59
2022-09-30T15:44:19.733Z,100707.25
2022-09-30T15:47:08.410Z,100705.28
2022-09-30T15:49:49.716Z,100702.59
2022-09-30T15:52:36.477Z,100710.19
2022-09-30T15:55:38.703Z,100705.63
2022-09-30T15:58:08.549Z,100699.53
2022-09-30T16:00:40.583Z,100688.91
2022-09-30T16:03:29.254Z,100688.66
2022-09-30T16:06:09.078Z,100682.56
2022-09-30T16:08:44.519Z,100687.69
2022-09-30T16:11:21.818Z,100686.59
2022-09-30T16:13:51.938Z,100681.25
2022-09-30T16:16:24.088Z,100673.47
2022-09-30T16:18:57.461Z,100682.81
2022-09-30T16:21:50.808Z,100668.81
2022-09-30T16:24:45.200Z,100669.41
2022-09-30T16:27:33.985Z,100668.31
2022-09-30T16:30:03.810Z,100660.38
2022-09-30T16:32:36.946Z,100655.00
2022-09-30T16:35:10.329Z,100648.00
2022-09-30T16:37:42.898Z,100640.94
2022-09-30T16:40:19.926Z,100637.97
2022-09-30T16:42:49.377Z,100636.16
2022-09-30T16:45:19.361Z,100636.16
2022-09-30T16:47:49.638Z,100631.63
2022-09-30T16:50:33.122Z,100622.75
2022-09-30T16:53:02.512Z,100622.63
2022-09-30T16:55:32.552Z,100614.66
2022-09-30T16:58:04.619Z,100610.91
2022-09-30T17:00:34.871Z,100611.88
2022-09-30T17:03:04.363Z,100613.44
2022-09-30T17:05:36.314Z,100622.03
2022-09-30T17:08:05.825Z,100614.19
2022-09-30T17:10:36.630Z,100613.75
2022-09-30T17:13:06.138Z,100605.16
2022-09-30T17:15:36.166Z,100611.88
2022-09-30T17:18:08.828Z,100609.22
2022-09-30T17:20:44.650Z,100602.06
2022-09-30T17:23:14.313Z,100604.53
2022-09-30T17:25:44.382Z,100607.81
2022-09-30T17:28:14.578Z,100608.56
2022-09-30T17:30:44.432Z,100609.34
2022-09-30T17:33:13.812Z,100602.34
2022-09-30T17:35:45.773Z,100601.38
2022-09-30T17:38:16.082Z,100601.25
2022-09-30T17:40:57.934Z,100603.56
2022-09-30T17:43:27.324Z,100594.94
2022-09-30T17:46:01.813Z,100592.19
2022-09-30T17:48:31.397Z,100597.31
2022-09-30T17:51:03.434Z,100597.31
2022-09-30T17:53:32.827Z,100595.41
2022-09-30T17:56:09.266Z,100585.84
2022-09-30T17:58:39.835Z,100570.97
2022-09-30T18:01:09.920Z,100570.97
2022-09-30T18:03:40.034Z,100572.25
2022-09-30T18:06:12.098Z,100568.72
2022-09-30T18:08:41.455Z,100571.88
2022-09-30T18:11:11.606Z,100570.03
2022-09-30T18:13:41.066Z,100557.84
2022-09-30T18:16:11.210Z,100560.25
2022-09-30T18:18:40.664Z,100554.97
2022-09-30T18:21:14.536Z,100564.44
2022-09-30T18:23:43.914Z,100554.97
2022-09-30T18:26:13.294Z,100548.72
2022-09-30T18:28:43.074Z,100545.94
2022-09-30T18:31:18.237Z,100538.91
2022-09-30T18:33:51.506Z,100532.63
2022-09-30T18:36:23.864Z,100530.78
2022-09-30T18:38:53.856Z,100528.06
2022-09-30T18:41:23.241Z,100521.22
2022-09-30T18:43:57.122Z,100527.16
2022-09-30T18:46:26.513Z,100523.50
2022-09-30T18:48:56.143Z,100521.69
2022-09-30T18:51:29.188Z,100510.38
2022-09-30T18:54:00.182Z,100510.31
2022-09-30T18:56:31.972Z,100510.88
2022-09-30T18:59:02.307Z,100500.31
2022-09-30T19:01:32.976Z,100484.53
2022-09-30T19:04:04.918Z,100460.81
2022-09-30T19:06:39.485Z,100411.88
2022-09-30T19:09:09.187Z,100422.63
2022-09-30T19:11:42.709Z,100436.63
2022-09-30T19:14:12.842Z,100446.06
2022-09-30T19:16:43.487Z,100449.19
2022-09-30T19:19:13.585Z,100449.56
2022-09-30T19:21:45.538Z,100446.63
2022-09-30T19:24:17.009Z,100432.78
2022-09-30T19:26:46.827Z,100432.19
2022-09-30T19:29:18.503Z,100423.41
2022-09-30T19:31:47.964Z,100396.75
2022-09-30T19:34:29.764Z,100375.78
2022-09-30T19:37:03.410Z,100371.81
2022-09-30T19:39:44.826Z,100365.00
2022-09-30T19:42:18.162Z,100361.41
2022-09-30T19:44:47.562Z,100357.94
2022-09-30T19:47:16.934Z,100354.06
2022-09-30T19:49:46.322Z,100343.13
2022-09-30T19:52:22.335Z,100344.88
2022-09-30T19:54:52.282Z,100345.91
2022-09-30T19:57:22.980Z,100334.22
2022-09-30T19:59:53.380Z,100330.28
2022-09-30T20:02:23.201Z,100325.88
2022-09-30T20:04:53.850Z,100321.44
2022-09-30T20:07:25.894Z,100315.16
2022-09-30T20:09:55.256Z,100315.91
2022-09-30T20:12:24.618Z,100297.97
2022-09-30T20:15:06.486Z,100305.31
2022-09-30T20:17:35.902Z,100297.34
2022-09-30T20:20:17.813Z,100288.44
2022-09-30T20:22:49.756Z,100284.13
2022-09-30T20:25:19.299Z,100269.75
2022-09-30T20:27:52.179Z,100253.31
2022-09-30T20:30:22.107Z,100242.13
2022-09-30T20:32:51.521Z,100236.97
2022-09-30T20:35:21.289Z,100230.66
2022-09-30T20:37:54.073Z,100227.25
2022-09-30T20:40:23.517Z,100223.31
2022-09-30T20:42:54.005Z,100212.16
2022-09-30T20:45:25.816Z,100220.31
2022-09-30T20:47:55.311Z,100203.88
2022-09-30T20:50:37.241Z,100199.41
2022-09-30T20:53:11.337Z,100194.22
2022-09-30T20:55:43.382Z,100184.03
2022-09-30T20:58:13.704Z,100177.00
2022-09-30T21:00:44.146Z,100173.50
2022-09-30T21:03:15.235Z,100171.75
2022-09-30T21:05:53.806Z,100159.25
2022-09-30T21:08:26.094Z,100163.59
2022-09-30T21:10:56.347Z,100158.56
2022-09-30T21:13:25.789Z,100154.06
2022-09-30T21:16:01.876Z,100162.97
2022-09-30T21:18:31.510Z,100148.97
2022-09-30T21:21:01.698Z,100158.59
2022-09-30T21:23:34.894Z,100151.41
2022-09-30T21:26:06.078Z,100151.34
2022-09-30T21:28:36.045Z,100141.19
2022-09-30T21:31:08.175Z,100145.28
2022-09-30T21:33:38.109Z,100140.19
2022-09-30T21:36:08.985Z,100137.56
2022-09-30T21:38:40.947Z,100131.50
2022-09-30T21:41:10.310Z,100120.56
2022-09-30T21:43:40.233Z,100126.91
2022-09-30T21:46:15.738Z,100121.78
2022-09-30T21:48:46.056Z,100113.75
2022-09-30T21:51:16.135Z,100111.91
2022-09-30T21:53:48.805Z,100112.03
2022-09-30T21:56:20.071Z,100099.16
2022-09-30T21:58:50.675Z,100088.81
2022-09-30T22:01:20.086Z,100083.06
2022-09-30T22:03:49.486Z,100088.56
2022-09-30T22:06:18.897Z,100081.41
2022-09-30T22:08:50.890Z,100077.78
2022-09-30T22:11:24.561Z,100079.81
2022-09-30T22:13:55.656Z,100085.22
2022-09-30T22:16:27.098Z,100081.13
2022-09-30T22:18:57.389Z,100091.53
2022-09-30T22:21:26.871Z,100080.69
2022-09-30T22:23:59.409Z,100081.66
2022-09-30T22:26:29.745Z,100075.19
2022-09-30T22:29:00.842Z,100077.09
2022-09-30T22:31:32.190Z,100076.09
2022-09-30T22:34:16.349Z,100075.44
2022-09-30T22:36:58.593Z,100062.41
2022-09-30T22:39:30.967Z,100062.66
2022-09-30T22:42:01.088Z,100058.03
2022-09-30T22:44:31.778Z,100057.50
2022-09-30T22:47:01.376Z,100058.06
2022-09-30T22:49:32.237Z,100055.38
2022-09-30T22:52:03.655Z,100054.44
2022-09-30T22:54:37.490Z,100052.63
2022-09-30T22:57:07.852Z,100052.66
2022-09-30T22:59:38.211Z,100049.81
2022-09-30T23:02:08.308Z,100053.88
2022-09-30T23:04:37.730Z,100038.97
2022-09-30T23:07:08.222Z,100050.59
2022-09-30T23:09:40.199Z,100041.88
2022-09-30T23:12:09.555Z,100047.22
2022-09-30T23:14:38.919Z,100050.59
2022-09-30T23:17:08.288Z,100047.91
2022-09-30T23:19:37.662Z,100047.09
2022-09-30T23:22:07.226Z,100042.09
2022-09-30T23:24:36.616Z,100045.44
2022-09-30T23:27:08.571Z,100038.63
2022-09-30T23:29:37.950Z,100044.09
2022-09-30T23:32:07.424Z,100039.56
2022-09-30T23:34:36.874Z,100034.41
2022-09-30T23:37:06.269Z,100033.31
2022-09-30T23:39:35.644Z,100029.72
2022-09-30T23:42:05.010Z,100033.66
2022-09-30T23:44:36.989Z,100037.06
2022-09-30T23:47:21.583Z,100031.91
2022-09-30T23:49:51.034Z,100032.44
2022-09-30T23:52:20.515Z,100025.84
2022-09-30T23:54:49.885Z,100021.38
2022-09-30T23:57:19.242Z,100026.53
2022-09-30T23:59:51.190Z,100032.06
